Time;durP1;ratioP1;P1;durP2;ratioP2;P2;SDS_P1;SDS_P2;PMS_P1;PMS_P2;Temp;Humidity;BMP_temperature;BMP_pressure;BME280_temperature;BME280_humidity;BME280_pressure;Samples;Min_cycle;Max_cycle;Signal;HPM_P1;HPM_P2
2023/05/24 00:02:19;;;;;;;60.88;48.80;;;13.60;82.60;;;;;;4940810;28;85943;-78
2023/05/24 00:04:45;;;;;;;60.00;48.45;;;13.60;82.70;;;;;;4942465;28;84842;-79
2023/05/24 00:07:11;;;;;;;63.80;48.47;;;13.60;83.50;;;;;;4942585;28;84852;-78
2023/05/24 00:09:36;;;;;;;60.40;48.90;;;13.50;83.40;;;;;;4940575;28;85041;-78
2023/05/24 00:12:03;;;;;;;59.50;48.88;;;13.50;82.30;;;;;;4940179;28;85161;-79
2023/05/24 00:14:29;;;;;;;61.92;49.03;;;13.60;83.90;;;;;;4941361;28;84719;-78
2023/05/24 00:16:54;;;;;;;62.22;48.55;;;13.60;83.60;;;;;;4944866;28;84979;-76
2023/05/24 00:19:21;;;;;;;58.58;48.35;;;13.50;85.00;;;;;;4945742;28;84725;-78
2023/05/24 00:21:51;;;;;;;59.60;48.78;;;13.50;82.80;;;;;;4943613;28;85745;-80
2023/05/24 00:24:16;;;;;;;59.47;48.28;;;13.40;83.60;;;;;;4941552;28;86578;-79
2023/05/24 00:26:43;;;;;;;61.90;48.53;;;13.40;82.80;;;;;;4937155;28;85772;-78
2023/05/24 00:29:08;;;;;;;63.10;48.78;;;13.30;83.60;;;;;;4937409;28;85045;-78
2023/05/24 00:31:34;;;;;;;60.15;48.75;;;13.40;83.30;;;;;;4941802;28;84762;-77
2023/05/24 00:34:00;;;;;;;58.75;48.72;;;13.30;84.00;;;;;;4936954;28;84343;-77
2023/05/24 00:36:25;;;;;;;62.22;48.78;;;13.30;83.60;;;;;;4936514;28;84963;-78
2023/05/24 00:38:54;;;;;;;62.00;48.63;;;13.30;83.60;;;;;;4937723;28;87580;-79
2023/05/24 00:41:19;;;;;;;62.20;49.03;;;13.30;84.20;;;;;;4937309;28;85666;-79
2023/05/24 00:43:45;;;;;;;59.55;48.85;;;13.20;83.40;;;;;;4941480;28;84693;-79
2023/05/24 00:46:24;;;;;;;62.90;48.70;;;13.30;83.30;;;;;;4942004;28;84824;-79
2023/05/24 00:48:50;;;;;;;60.05;48.75;;;13.20;82.50;;;;;;4941979;28;84592;-80
2023/05/24 00:51:15;;;;;;;57.38;48.53;;;13.20;83.10;;;;;;4934900;28;85911;-79
2023/05/24 00:53:44;;;;;;;59.47;48.60;;;13.20;84.40;;;;;;4939936;28;84562;-78
2023/05/24 00:56:12;;;;;;;61.25;49.08;;;13.20;83.40;;;;;;4941763;28;85284;-79
2023/05/24 00:58:38;;;;;;;59.30;48.92;;;13.20;82.80;;;;;;4939774;28;85804;-76
2023/05/24 01:01:04;;;;;;;61.00;48.50;;;13.20;83.00;;;;;;4937524;28;84912;-78
2023/05/24 01:03:30;;;;;;;61.55;48.83;;;13.20;84.00;;;;;;4943217;28;85040;-78
2023/05/24 01:06:02;;;;;;;60.67;48.65;;;13.20;84.00;;;;;;4940980;28;84852;-81
2023/05/24 01:08:49;;;;;;;60.53;48.65;;;13.10;83.50;;;;;;4938101;28;84971;-76
2023/05/24 01:11:44;;;;;;;61.28;48.63;;;13.10;84.10;;;;;;4938935;28;85351;-79
2023/05/24 01:14:37;;;;;;;61.25;49.15;;;13.10;84.00;;;;;;4921402;28;85378;-79
2023/05/24 01:17:29;;;;;;;61.55;49.00;;;13.10;84.80;;;;;;4935680;28;85494;-77
2023/05/24 01:20:09;;;;;;;59.83;48.85;;;13.10;83.20;;;;;;4940534;28;89984;-79
2023/05/24 01:22:49;;;;;;;63.97;48.70;;;13.10;83.60;;;;;;4943377;28;85061;-77
2023/05/24 01:26:02;;;;;;;63.22;49.08;;;13.00;84.50;;;;;;4940987;28;84649;-78
2023/05/24 01:28:30;;;;;;;61.75;48.42;;;13.00;83.40;;;;;;4898241;28;84535;-76
2023/05/24 01:30:57;;;;;;;58.10;48.35;;;13.10;84.30;;;;;;4899200;28;85949;-80
2023/05/24 01:33:23;;;;;;;60.58;48.67;;;13.00;84.20;;;;;;4915775;28;84499;-77
2023/05/24 01:35:49;;;;;;;60.13;48.65;;;13.00;83.30;;;;;;4937044;28;89585;-79
2023/05/24 01:38:15;;;;;;;58.88;48.70;;;13.00;85.30;;;;;;4938102;28;85344;-80
2023/05/24 01:40:40;;;;;;;60.22;48.78;;;13.00;82.80;;;;;;4940474;28;86537;-78
2023/05/24 01:43:19;;;;;;;62.40;48.65;;;13.00;84.10;;;;;;4943647;28;85257;-76
2023/05/24 01:46:01;;;;;;;58.55;48.60;;;13.00;84.20;;;;;;4940269;28;85371;-79
2023/05/24 01:48:54;;;;;;;59.08;48.90;;;12.90;83.00;;;;;;4942747;28;84919;-78
2023/05/24 01:51:25;;;;;;;59.17;48.60;;;12.90;84.70;;;;;;4952275;28;86944;-78
2023/05/24 01:53:53;;;;;;;60.30;48.58;;;12.90;83.80;;;;;;4940604;28;85015;-78
2023/05/24 01:56:20;;;;;;;61.33;48.92;;;12.90;83.70;;;;;;4935228;28;84983;-77
2023/05/24 01:58:49;;;;;;;59.78;48.92;;;13.00;84.20;;;;;;4938621;28;85760;-80
2023/05/24 02:01:15;;;;;;;61.45;48.78;;;12.90;84.20;;;;;;4938060;28;84658;-78
2023/05/24 02:03:41;;;;;;;62.05;48.83;;;12.80;83.10;;;;;;4938361;28;85550;-78
2023/05/24 02:06:07;;;;;;;64.45;49.15;;;12.80;84.00;;;;;;4940140;28;84168;-79
2023/05/24 02:08:33;;;;;;;59.28;48.28;;;12.80;84.40;;;;;;4941388;28;85054;-77
2023/05/24 02:10:58;;;;;;;59.75;48.70;;;12.80;84.40;;;;;;4940941;28;84774;-76
2023/05/24 02:13:24;;;;;;;61.45;49.08;;;12.80;84.70;;;;;;4937323;28;84432;-79
2023/05/24 02:15:52;;;;;;;60.30;48.90;;;12.80;84.60;;;;;;4941762;28;84256;-79
2023/05/24 02:18:18;;;;;;;59.60;48.83;;;12.80;83.90;;;;;;4943735;28;85837;-78
2023/05/24 02:20:44;;;;;;;58.42;48.40;;;12.80;85.60;;;;;;4940399;28;85222;-77
2023/05/24 02:23:09;;;;;;;58.78;48.72;;;12.80;84.70;;;;;;4942034;28;86017;-78
2023/05/24 02:25:35;;;;;;;58.38;48.90;;;12.80;84.30;;;;;;4939342;28;86337;-80
2023/05/24 02:28:01;;;;;;;57.35;48.45;;;12.70;85.70;;;;;;4940252;28;85679;-79
2023/05/24 02:30:27;;;;;;;58.60;48.85;;;12.80;84.60;;;;;;4937743;28;85010;-78
2023/05/24 02:32:52;;;;;;;59.97;48.67;;;12.80;84.90;;;;;;4934687;28;86295;-76
2023/05/24 02:35:19;;;;;;;60.33;48.72;;;12.70;83.90;;;;;;4942641;28;84953;-76
2023/05/24 02:37:44;;;;;;;58.78;48.92;;;12.70;85.60;;;;;;4942093;28;85477;-78
2023/05/24 02:40:11;;;;;;;59.45;49.13;;;12.70;84.30;;;;;;4935051;28;84729;-78
2023/05/24 02:42:36;;;;;;;58.70;48.92;;;12.60;85.10;;;;;;4943023;28;85051;-79
2023/05/24 02:45:02;;;;;;;59.17;49.03;;;12.70;84.70;;;;;;4941152;28;85591;-77
2023/05/24 02:47:28;;;;;;;58.45;48.97;;;12.60;83.90;;;;;;4942428;28;85106;-78
2023/05/24 02:49:54;;;;;;;59.60;48.95;;;12.60;83.90;;;;;;4940060;28;89845;-78
2023/05/24 02:52:22;;;;;;;58.88;48.92;;;12.60;85.70;;;;;;4929976;28;86243;-76
2023/05/24 02:54:48;;;;;;;59.88;48.75;;;12.60;85.30;;;;;;4939469;28;85402;-79
2023/05/24 02:57:14;;;;;;;61.83;49.35;;;12.50;84.30;;;;;;4934042;28;85418;-79
2023/05/24 02:59:39;;;;;;;59.33;48.42;;;12.50;83.80;;;;;;4941437;28;86752;-79
2023/05/24 03:02:05;;;;;;;59.47;48.60;;;12.50;85.60;;;;;;4941557;28;84601;-78
2023/05/24 03:04:30;;;;;;;58.20;48.92;;;12.60;85.60;;;;;;4947156;28;86749;-79
2023/05/24 03:06:56;;;;;;;59.83;49.10;;;12.60;86.20;;;;;;4945475;28;84398;-78
2023/05/24 03:09:22;;;;;;;60.05;48.95;;;12.50;84.50;;;;;;4939613;28;85326;-78
2023/05/24 03:11:47;;;;;;;57.47;48.40;;;12.50;84.60;;;;;;4947340;28;85042;-78
2023/05/24 03:14:13;;;;;;;61.75;48.83;;;12.50;84.60;;;;;;4945041;28;89475;-77
2023/05/24 03:16:39;;;;;;;57.88;48.85;;;12.50;85.00;;;;;;4944224;28;85179;-79
2023/05/24 03:19:05;;;;;;;60.00;49.00;;;12.50;85.50;;;;;;4942723;28;84798;-79
2023/05/24 03:21:31;;;;;;;59.25;48.35;;;12.40;84.30;;;;;;4937675;28;84809;-80
2023/05/24 03:23:57;;;;;;;60.58;48.30;;;12.40;85.60;;;;;;4942136;28;84928;-78
2023/05/24 03:26:23;;;;;;;58.60;48.85;;;12.40;84.90;;;;;;4943632;28;86160;-77
2023/05/24 03:28:50;;;;;;;61.33;48.53;;;12.40;83.90;;;;;;4938607;28;86199;-78
2023/05/24 03:31:16;;;;;;;58.92;48.72;;;12.30;85.00;;;;;;4943333;28;85674;-80
2023/05/24 03:33:42;;;;;;;58.38;49.10;;;12.30;85.30;;;;;;4948612;28;85347;-77
2023/05/24 03:36:07;;;;;;;57.10;49.03;;;12.40;86.30;;;;;;4940732;28;84353;-78
2023/05/24 03:38:33;;;;;;;58.28;48.72;;;12.40;86.10;;;;;;4941146;28;85966;-79
2023/05/24 03:40:59;;;;;;;58.50;48.65;;;12.30;85.10;;;;;;4938012;28;85037;-78
2023/05/24 03:43:25;;;;;;;59.95;49.13;;;12.30;85.40;;;;;;4944148;28;85662;-75
2023/05/24 03:45:50;;;;;;;60.88;48.90;;;12.20;84.90;;;;;;4939959;28;85414;-79
2023/05/24 03:48:19;;;;;;;60.00;49.15;;;12.30;86.70;;;;;;4939773;28;84659;-80
2023/05/24 03:50:45;;;;;;;60.55;49.13;;;12.30;86.40;;;;;;4938816;28;86191;-77
2023/05/24 03:53:11;;;;;;;58.45;48.70;;;12.20;86.30;;;;;;4939756;28;86781;-78
2023/05/24 03:55:37;;;;;;;58.13;48.97;;;12.20;85.70;;;;;;4941207;28;84654;-78
2023/05/24 03:58:03;;;;;;;60.45;48.78;;;12.20;84.60;;;;;;4945928;28;84474;-78
2023/05/24 04:00:28;;;;;;;57.50;48.95;;;12.20;86.20;;;;;;4938280;28;85699;-78
2023/05/24 04:02:54;;;;;;;62.05;49.13;;;12.20;86.00;;;;;;4941803;28;84660;-79
2023/05/24 04:05:20;;;;;;;60.35;49.30;;;12.20;86.50;;;;;;4940643;28;84274;-76
2023/05/24 04:07:46;;;;;;;60.78;49.47;;;12.20;85.40;;;;;;4943909;28;84991;-79
2023/05/24 04:10:12;;;;;;;57.47;48.75;;;12.20;85.20;;;;;;4942095;28;86302;-77
2023/05/24 04:12:39;;;;;;;59.30;49.40;;;12.20;85.30;;;;;;4945746;28;84687;-78
2023/05/24 04:15:06;;;;;;;61.15;49.13;;;12.20;86.50;;;;;;4940763;28;84975;-77
2023/05/24 04:17:33;;;;;;;57.33;48.67;;;12.20;87.30;;;;;;4941822;28;85099;-77
2023/05/24 04:20:00;;;;;;;59.45;49.08;;;12.20;85.10;;;;;;4940801;28;84735;-79
2023/05/24 04:22:25;;;;;;;59.42;48.95;;;12.20;85.80;;;;;;4941026;28;84445;-79
2023/05/24 04:24:51;;;;;;;60.33;49.10;;;12.20;85.80;;;;;;4942861;28;86056;-79
2023/05/24 04:27:17;;;;;;;58.97;49.38;;;12.10;84.40;;;;;;4940353;28;84656;-79
2023/05/24 04:29:44;;;;;;;60.38;49.72;;;12.20;85.00;;;;;;4939602;28;84863;-77
2023/05/24 04:32:13;;;;;;;58.65;48.97;;;12.10;84.60;;;;;;4944717;28;85453;-77
2023/05/24 04:34:41;;;;;;;59.10;49.15;;;12.20;84.50;;;;;;4940368;28;85153;-77
2023/05/24 04:37:07;;;;;;;60.05;49.70;;;12.10;84.20;;;;;;4943452;28;86023;-79
2023/05/24 04:39:33;;;;;;;59.85;49.28;;;12.10;85.10;;;;;;4940873;28;84655;-78
2023/05/24 04:41:59;;;;;;;57.78;48.97;;;12.20;85.80;;;;;;4939425;28;86731;-79
2023/05/24 04:44:26;;;;;;;58.00;49.17;;;12.20;84.20;;;;;;4936185;28;84826;-76
2023/05/24 04:46:52;;;;;;;59.47;48.92;;;12.20;85.20;;;;;;4937202;28;85842;-77
2023/05/24 04:49:18;;;;;;;59.75;49.15;;;12.20;85.20;;;;;;4941529;28;86202;-77
2023/05/24 04:51:45;;;;;;;60.40;49.85;;;12.20;84.40;;;;;;4939942;28;85403;-78
2023/05/24 04:54:10;;;;;;;59.17;48.83;;;12.20;83.80;;;;;;4941596;28;85274;-77
2023/05/24 04:56:37;;;;;;;58.03;49.15;;;12.20;84.00;;;;;;4941295;28;85598;-78
2023/05/24 04:59:06;;;;;;;59.45;49.35;;;12.20;84.90;;;;;;4938344;28;85731;-77
2023/05/24 05:01:32;;;;;;;60.90;49.47;;;12.20;83.70;;;;;;4942149;28;84984;-77
2023/05/24 05:03:58;;;;;;;59.83;49.05;;;12.30;85.50;;;;;;4944404;28;85049;-76
2023/05/24 05:06:25;;;;;;;62.28;49.72;;;12.40;85.00;;;;;;4939554;28;86270;-77
2023/05/24 05:08:51;;;;;;;59.63;49.45;;;12.40;84.80;;;;;;4933133;28;87090;-72
2023/05/24 05:11:17;;;;;;;58.60;48.67;;;12.40;84.20;;;;;;4933510;28;85897;-78
2023/05/24 05:13:44;;;;;;;60.13;49.78;;;12.50;86.80;;;;;;4938937;28;86494;-75
2023/05/24 05:16:09;;;;;;;60.25;49.25;;;12.50;83.70;;;;;;4937656;28;86465;-78
2023/05/24 05:18:36;;;;;;;58.65;49.08;;;12.50;84.30;;;;;;4938239;28;85436;-79
2023/05/24 05:21:02;;;;;;;59.90;49.47;;;12.50;85.00;;;;;;4944107;28;85117;-76
2023/05/24 05:23:31;;;;;;;59.33;49.50;;;12.50;83.20;;;;;;4941879;28;86487;-78
2023/05/24 05:25:56;;;;;;;60.90;49.28;;;12.60;83.30;;;;;;4943122;28;85779;-78
2023/05/24 05:28:22;;;;;;;59.40;49.08;;;12.60;83.40;;;;;;4940887;28;84917;-77
2023/05/24 05:30:48;;;;;;;62.30;49.45;;;12.60;83.00;;;;;;4933474;28;86210;-77
2023/05/24 05:33:13;;;;;;;60.90;49.08;;;12.60;85.10;;;;;;4935038;28;85020;-75
2023/05/24 05:35:39;;;;;;;60.88;49.13;;;12.80;85.10;;;;;;4939283;28;85522;-76
2023/05/24 05:38:05;;;;;;;62.95;49.10;;;13.00;81.60;;;;;;4933323;28;89774;-75
2023/05/24 05:40:30;;;;;;;64.03;49.70;;;13.00;85.40;;;;;;4920225;28;85595;-78
2023/05/24 05:42:56;;;;;;;63.63;50.15;;;13.20;84.30;;;;;;4934293;28;85223;-78
2023/05/24 05:45:21;;;;;;;64.63;50.65;;;13.50;84.60;;;;;;4940384;28;84784;-76
2023/05/24 05:47:47;;;;;;;67.68;49.60;;;13.50;81.30;;;;;;4945279;28;85901;-78
2023/05/24 05:50:13;;;;;;;66.28;49.83;;;13.60;85.00;;;;;;4935400;28;85259;-75
2023/05/24 05:52:39;;;;;;;64.25;49.85;;;13.60;81.70;;;;;;4941267;28;84721;-77
2023/05/24 05:55:06;;;;;;;60.80;49.55;;;13.50;83.20;;;;;;4940765;28;84949;-78
2023/05/24 05:57:31;;;;;;;61.20;49.80;;;13.60;83.20;;;;;;4937274;28;84829;-77
2023/05/24 05:59:57;;;;;;;64.10;49.85;;;13.60;82.30;;;;;;4937530;28;84414;-78
2023/05/24 06:02:22;;;;;;;63.47;49.53;;;13.60;82.00;;;;;;4939175;28;85000;-75
2023/05/24 06:04:49;;;;;;;62.08;49.50;;;13.70;81.80;;;;;;4942411;28;84733;-78
2023/05/24 06:07:14;;;;;;;62.92;49.22;;;13.70;81.20;;;;;;4938102;28;84875;-78
2023/05/24 06:09:40;;;;;;;65.00;50.03;;;13.90;80.50;;;;;;4941110;28;84887;-79
2023/05/24 06:12:06;;;;;;;63.03;49.65;;;14.00;80.00;;;;;;4939703;28;86177;-74
2023/05/24 06:14:33;;;;;;;66.32;50.05;;;14.00;80.70;;;;;;4932676;28;86030;-77
2023/05/24 06:16:59;;;;;;;66.57;49.92;;;14.10;80.30;;;;;;4942600;28;84711;-76
2023/05/24 06:20:14;;;;;;;62.47;50.00;;;14.00;79.50;;;;;;4940621;28;82827;-63
2023/05/24 06:22:41;;;;;;;60.78;49.30;;;14.00;79.80;;;;;;4936941;28;85982;-54
2023/05/24 06:25:07;;;;;;;61.83;49.80;;;13.80;79.20;;;;;;4928183;28;87204;-58
2023/05/24 06:27:48;;;;;;;62.75;49.35;;;13.80;77.20;;;;;;4968288;28;83050;-52
2023/05/24 06:30:13;;;;;;;62.60;49.10;;;13.80;79.00;;;;;;4954023;28;85890;-47
2023/05/24 06:32:39;;;;;;;60.00;48.70;;;13.80;78.50;;;;;;4952583;28;85681;-64
2023/05/24 06:35:05;;;;;;;62.50;49.65;;;13.80;77.30;;;;;;4962341;28;85112;-47
2023/05/24 06:37:32;;;;;;;61.80;49.88;;;13.80;77.70;;;;;;4952815;28;87282;-59
2023/05/24 06:41:59;;;;;;;62.45;49.25;;;13.80;77.40;;;;;;5025623;27;1355220;-75
2023/05/24 06:44:32;;;;;;;59.17;48.70;;;13.90;80.10;;;;;;5073147;27;85614;-77
2023/05/24 06:46:57;;;;;;;62.15;49.00;;;13.80;77.50;;;;;;5068717;27;85098;-75
2023/05/24 06:49:23;;;;;;;59.25;49.05;;;13.90;79.20;;;;;;5075265;27;84751;-77
2023/05/24 06:53:21;;;;;;;59.88;48.97;;;13.80;77.10;;;;;;4991543;28;84063;-57
2023/05/24 06:55:46;;;;;;;60.70;48.58;;;13.90;78.00;;;;;;4977088;28;85237;-51
2023/05/24 06:58:13;;;;;;;62.88;48.90;;;13.90;76.60;;;;;;4971358;28;85388;-61
2023/05/24 07:00:41;;;;;;;63.55;49.03;;;14.00;77.50;;;;;;4971377;28;85349;-60
2023/05/24 07:03:08;;;;;;;62.53;49.17;;;14.00;77.30;;;;;;4972977;28;86860;-49
2023/05/24 07:05:34;;;;;;;61.75;48.58;;;14.00;78.00;;;;;;4976718;28;86357;-62
2023/05/24 07:08:00;;;;;;;61.22;48.83;;;14.30;80.30;;;;;;4971862;28;84933;-62
2023/05/24 07:10:25;;;;;;;60.72;48.72;;;14.30;79.00;;;;;;4973307;28;85088;-56
2023/05/24 07:12:51;;;;;;;60.92;48.92;;;14.30;77.40;;;;;;4967803;28;86850;-51
2023/05/24 07:15:17;;;;;;;60.22;48.58;;;14.30;77.00;;;;;;4974369;28;84972;-58
2023/05/24 07:17:42;;;;;;;62.03;49.05;;;14.30;76.90;;;;;;4974393;28;84553;-57
2023/05/24 07:20:09;;;;;;;61.67;48.95;;;14.30;76.70;;;;;;4974813;28;85804;-54
2023/05/24 07:22:35;;;;;;;63.35;49.67;;;14.30;75.20;;;;;;4973202;28;85511;-56
2023/05/24 07:25:01;;;;;;;62.85;49.28;;;14.40;76.50;;;;;;4968805;28;85954;-53
2023/05/24 07:27:27;;;;;;;63.80;49.17;;;14.40;75.90;;;;;;4971186;28;90973;-56
2023/05/24 07:29:53;;;;;;;61.75;48.85;;;14.50;76.20;;;;;;4970042;28;84933;-49
2023/05/24 07:32:18;;;;;;;64.22;49.22;;;14.50;75.50;;;;;;4969871;28;86810;-57
2023/05/24 07:34:44;;;;;;;62.42;49.13;;;14.50;76.40;;;;;;4968122;28;85166;-58
2023/05/24 07:37:10;;;;;;;62.53;49.00;;;14.50;77.50;;;;;;4970070;28;85743;-60
2023/05/24 07:39:37;;;;;;;61.90;49.45;;;14.70;79.50;;;;;;4972516;28;85742;-53
2023/05/24 07:42:03;;;;;;;70.45;50.45;;;14.80;77.50;;;;;;4974995;28;85229;-60
2023/05/24 07:44:29;;;;;;;67.20;49.83;;;14.80;80.20;;;;;;4969494;28;86660;-53
2023/05/24 07:46:55;;;;;;;68.30;50.47;;;14.80;76.10;;;;;;4963491;28;85230;-50
2023/05/24 07:49:21;;;;;;;64.20;49.78;;;14.80;75.50;;;;;;4967395;28;84934;-61
2023/05/24 07:51:48;;;;;;;65.63;49.40;;;14.80;76.60;;;;;;4974843;28;86622;-64
2023/05/24 07:54:13;;;;;;;63.70;50.10;;;14.90;76.20;;;;;;4963575;28;88443;-57
2023/05/24 07:56:41;;;;;;;65.57;50.22;;;14.90;76.50;;;;;;4974069;28;86269;-61
2023/05/24 07:59:07;;;;;;;66.75;50.35;;;14.80;75.70;;;;;;4970085;28;85782;-59
2023/05/24 08:01:34;;;;;;;66.65;50.20;;;14.90;75.40;;;;;;4967655;28;85403;-45
2023/05/24 08:04:02;;;;;;;69.03;50.00;;;14.80;75.40;;;;;;4961469;28;85136;-54
2023/05/24 08:06:34;;;;;;;67.70;50.83;;;14.90;77.10;;;;;;4958252;28;85050;-54
2023/05/24 08:09:01;;;;;;;65.38;50.30;;;15.00;77.30;;;;;;4950029;28;84908;-44
2023/05/24 08:11:26;;;;;;;66.85;50.10;;;15.00;75.90;;;;;;4950980;22;85112;-74
2023/05/24 08:13:52;;;;;;;70.90;51.13;;;15.10;76.10;;;;;;4919898;28;84616;-76
2023/05/24 08:16:30;;;;;;;64.45;50.20;;;15.10;78.20;;;;;;4930385;28;84759;-78
2023/05/24 08:18:56;;;;;;;66.72;50.97;;;15.20;75.80;;;;;;4923803;28;85112;-78
2023/05/24 08:21:22;;;;;;;65.75;50.63;;;15.40;76.50;;;;;;4923345;28;85106;-79
2023/05/24 08:24:01;;;;;;;67.22;51.30;;;15.40;74.20;;;;;;4922116;28;85891;-81
2023/05/24 08:26:26;;;;;;;65.85;50.60;;;15.40;75.70;;;;;;4923691;28;84947;-79
2023/05/24 08:28:52;;;;;;;66.90;50.95;;;15.50;74.70;;;;;;4922322;28;84794;-75
2023/05/24 08:31:18;;;;;;;63.15;50.55;;;15.60;73.60;;;;;;4923046;28;85293;-75
2023/05/24 08:33:49;;;;;;;65.28;50.90;;;15.70;73.60;;;;;;4923904;28;84547;-78
2023/05/24 08:36:19;;;;;;;64.15;50.20;;;15.70;73.30;;;;;;4925368;28;85756;-78
2023/05/24 08:38:45;;;;;;;67.57;51.00;;;15.80;73.10;;;;;;4931513;28;84281;-75
2023/05/24 08:41:10;;;;;;;64.32;50.60;;;15.90;74.40;;;;;;4917531;28;84760;-78
2023/05/24 08:43:41;;;;;;;67.93;50.85;;;16.00;72.70;;;;;;4922535;28;84812;-80
2023/05/24 08:46:08;;;;;;;68.55;51.10;;;16.00;73.20;;;;;;4923443;28;84584;-78
2023/05/24 08:48:46;;;;;;;66.07;51.25;;;16.10;72.90;;;;;;4926971;28;84909;-79
2023/05/24 08:51:15;;;;;;;69.15;51.28;;;16.10;71.00;;;;;;4918323;28;84432;-77
2023/05/24 08:53:47;;;;;;;67.82;51.13;;;16.20;72.30;;;;;;4927352;28;84885;-80
2023/05/24 08:56:16;;;;;;;;;;;16.20;71.00;;;;;;4928185;28;84785;-77
2023/05/24 08:58:42;;;;;;;67.53;51.55;;;16.30;70.30;;;;;;4924904;28;83962;-76
2023/05/24 09:01:10;;;;;;;68.18;52.08;;;16.40;70.50;;;;;;4924241;28;84633;-77
2023/05/24 09:03:36;;;;;;;65.93;50.97;;;16.40;71.50;;;;;;4918357;28;85434;-76
2023/05/24 09:06:03;;;;;;;66.18;51.03;;;16.50;71.20;;;;;;4926344;28;85687;-76
2023/05/24 09:08:32;;;;;;;69.30;51.75;;;16.60;70.70;;;;;;4926062;28;84806;-75
2023/05/24 09:10:58;;;;;;;71.57;51.70;;;16.60;71.20;;;;;;4923440;28;84696;-76
2023/05/24 09:13:25;;;;;;;68.90;51.55;;;16.70;70.30;;;;;;4921246;28;87058;-77
2023/05/24 09:15:52;;;;;;;65.07;51.33;;;16.80;70.40;;;;;;4913668;28;85590;-76
2023/05/24 09:18:18;;;;;;;65.10;51.15;;;16.80;70.40;;;;;;4920588;28;85599;-75
2023/05/24 09:20:43;;;;;;;65.30;51.38;;;16.90;70.00;;;;;;4917981;28;85010;-76
2023/05/24 09:23:10;;;;;;;63.92;50.80;;;17.00;70.10;;;;;;4926541;28;85005;-75
2023/05/24 09:25:41;;;;;;;65.32;51.25;;;17.00;69.70;;;;;;4922439;28;86106;-75
2023/05/24 09:28:07;;;;;;;69.45;51.47;;;17.10;69.30;;;;;;4922697;28;84541;-75
2023/05/24 09:30:33;;;;;;;66.63;51.58;;;17.10;70.50;;;;;;4923218;28;84947;-77
2023/05/24 09:33:00;;;;;;;65.38;51.10;;;17.20;70.80;;;;;;4920180;28;87006;-77
2023/05/24 09:35:27;;;;;;;68.45;51.47;;;17.30;69.70;;;;;;4924584;28;84234;-76
2023/05/24 09:37:56;;;;;;;69.28;51.35;;;17.30;69.70;;;;;;4920800;28;85111;-77
2023/05/24 09:40:22;;;;;;;67.80;51.80;;;17.40;69.50;;;;;;4923226;28;85038;-76
2023/05/24 09:43:00;;;;;;;67.57;51.33;;;17.50;73.50;;;;;;4919815;28;84503;-78
2023/05/24 09:45:27;;;;;;;64.47;50.60;;;17.60;69.90;;;;;;4921966;28;87000;-76
2023/05/24 09:47:53;;;;;;;67.25;51.33;;;17.60;69.10;;;;;;4921156;28;85554;-75
2023/05/24 09:50:18;;;;;;;69.07;51.55;;;17.60;68.90;;;;;;4918970;28;84710;-75
2023/05/24 09:52:44;;;;;;;65.68;50.78;;;17.60;71.80;;;;;;4918628;28;84993;-81
2023/05/24 09:55:20;;;;;;;65.53;50.65;;;17.60;69.20;;;;;;4916035;28;85623;-76
2023/05/24 09:58:04;;;;;;;65.35;50.75;;;17.70;69.10;;;;;;4913343;28;87427;-77
2023/05/24 10:00:42;;;;;;;66.57;51.53;;;17.70;68.60;;;;;;4915442;28;84596;-74
2023/05/24 10:03:13;;;;;;;64.45;51.03;;;17.70;68.40;;;;;;4917159;28;85648;-76
2023/05/24 10:05:43;;;;;;;67.18;51.38;;;17.80;69.50;;;;;;4920613;28;85400;-75
2023/05/24 10:08:10;;;;;;;68.85;52.00;;;17.80;68.50;;;;;;4919237;28;84855;-75
2023/05/24 10:10:36;;;;;;;65.68;51.67;;;17.80;67.90;;;;;;4916344;28;85884;-77
2023/05/24 10:13:02;;;;;;;66.53;51.22;;;17.90;68.10;;;;;;4918875;28;86493;-79
2023/05/24 10:15:28;;;;;;;68.43;51.70;;;17.90;67.80;;;;;;4923348;28;84414;-76
2023/05/24 10:17:55;;;;;;;67.13;51.45;;;17.90;68.00;;;;;;4920629;28;84494;-77
2023/05/24 10:20:22;;;;;;;66.15;51.40;;;18.00;67.80;;;;;;4923628;28;84720;-77
2023/05/24 10:22:52;;;;;;;67.65;51.17;;;18.10;67.50;;;;;;4920852;28;85241;-75
2023/05/24 10:25:26;;;;;;;69.28;51.47;;;18.10;68.70;;;;;;4913059;28;84635;-73
2023/05/24 10:27:58;;;;;;;65.65;51.13;;;18.20;69.40;;;;;;4914384;28;85701;-76
2023/05/24 10:30:39;;;;;;;69.43;52.42;;;18.30;68.10;;;;;;4922098;28;85022;-74
2023/05/24 10:34:37;;;;;;;71.95;52.42;;;18.40;65.20;;;;;;4995675;28;83472;-45
2023/05/24 10:37:03;;;;;;;68.75;51.25;;;18.40;65.70;;;;;;4989797;28;85673;-45
2023/05/24 10:39:31;;;;;;;74.45;52.83;;;18.40;66.40;;;;;;4992087;28;86488;-43
2023/05/24 10:42:02;;;;;;;68.13;52.30;;;18.50;64.00;;;;;;5007397;27;90727;-47
2023/05/24 10:44:29;;;;;;;74.03;52.78;;;18.50;63.50;;;;;;4994288;28;85032;-49
2023/05/24 10:48:11;;;;;;;72.18;53.00;;;18.60;61.50;;;;;;5043241;27;83412;-49
2023/05/24 10:50:37;;;;;;;67.63;51.35;;;18.60;64.00;;;;;;5032443;27;85120;-44
2023/05/24 10:53:13;;;;;;;65.82;51.22;;;18.70;66.20;;;;;;5026651;27;86192;-45
2023/05/24 10:55:56;;;;;;;72.07;52.65;;;18.70;66.20;;;;;;5030098;27;85803;-44
2023/05/24 10:58:57;;;;;;;69.63;52.05;;;18.80;58.20;;;;;;5026572;27;85233;-48
2023/05/24 11:01:25;;;;;;;71.97;52.63;;;18.80;59.00;;;;;;5027832;27;85367;-45
2023/05/24 11:03:51;;;;;;;69.30;51.97;;;18.80;59.80;;;;;;5024904;27;86386;-47
2023/05/24 11:06:18;;;;;;;65.38;51.33;;;18.80;59.90;;;;;;5032188;27;85401;-49
2023/05/24 11:08:45;;;;;;;67.70;51.80;;;18.90;62.00;;;;;;5026673;27;85552;-47
2023/05/24 11:11:19;;;;;;;69.03;51.83;;;18.90;60.30;;;;;;5033952;27;85886;-43
2023/05/24 11:13:46;;;;;;;68.07;51.17;;;18.90;62.10;;;;;;5025445;27;86988;-45
2023/05/24 11:16:34;;;;;;;68.65;51.83;;;18.90;62.90;;;;;;5027698;27;85471;-54
2023/05/24 11:19:11;;;;;;;69.43;51.47;;;19.00;58.40;;;;;;5027980;27;85310;-49
2023/05/24 11:21:40;;;;;;;72.65;52.22;;;19.00;64.00;;;;;;5029871;27;85601;-46
2023/05/24 11:24:22;;;;;;;70.65;52.10;;;19.10;57.20;;;;;;5020209;27;82709;-48
2023/05/24 11:26:49;;;;;;;71.82;51.97;;;19.10;55.20;;;;;;5028468;27;85701;-49
2023/05/24 11:29:21;;;;;;;70.10;52.38;;;19.10;53.80;;;;;;5024804;27;85409;-52
2023/05/24 11:31:51;;;;;;;74.63;53.00;;;19.20;54.10;;;;;;5033174;27;85495;-47
2023/05/24 11:34:19;;;;;;;70.85;51.97;;;19.20;53.60;;;;;;5031780;27;85185;-49
2023/05/24 11:36:46;;;;;;;70.72;51.67;;;19.20;53.40;;;;;;5024965;27;86187;-48
2023/05/24 11:39:13;;;;;;;73.45;52.60;;;19.20;56.90;;;;;;5034680;27;85028;-49
2023/05/24 11:41:39;;;;;;;69.95;51.95;;;19.20;54.20;;;;;;5027796;27;85034;-46
2023/05/24 11:44:09;;;;;;;71.47;52.58;;;19.20;56.60;;;;;;5027674;27;85078;-48
2023/05/24 11:46:37;;;;;;;70.40;52.47;;;19.30;52.20;;;;;;5034000;27;87141;-45
2023/05/24 11:49:04;;;;;;;73.95;52.35;;;19.20;53.20;;;;;;5030479;27;85481;-44
2023/05/24 11:51:32;;;;;;;70.25;52.65;;;19.20;51.70;;;;;;5032147;27;85072;-54
2023/05/24 11:53:58;;;;;;;71.82;52.80;;;19.20;51.70;;;;;;5029031;27;86102;-57
2023/05/24 11:56:26;;;;;;;70.25;52.95;;;19.20;50.70;;;;;;5015885;27;85162;-56
2023/05/24 11:59:05;;;;;;;71.78;52.97;;;19.20;51.70;;;;;;5026909;27;85223;-67
2023/05/24 12:01:31;;;;;;;72.88;52.90;;;19.20;51.50;;;;;;5028552;27;85133;-66
2023/05/24 12:03:57;;;;;;;70.38;52.78;;;19.30;52.00;;;;;;5005203;27;85266;-58
2023/05/24 12:06:22;;;;;;;70.28;52.38;;;19.20;51.50;;;;;;5037085;27;85066;-58
2023/05/24 12:08:48;;;;;;;71.65;52.92;;;19.20;55.60;;;;;;5025996;27;86802;-59
2023/05/24 12:11:15;;;;;;;71.53;52.63;;;19.20;54.10;;;;;;5026037;27;87270;-60
2023/05/24 12:14:15;;;;;;;69.75;52.65;;;19.20;53.90;;;;;;4987561;28;82704;-50
2023/05/24 12:16:45;;;;;;;73.65;52.90;;;19.20;60.00;;;;;;4974096;28;84616;-55
2023/05/24 12:19:17;;;;;;;67.75;52.20;;;19.20;52.20;;;;;;4995257;22;86376;-75
2023/05/24 12:21:43;;;;;;;68.00;52.03;;;19.10;56.20;;;;;;4992577;28;84757;-74
2023/05/24 12:24:19;;;;;;;67.78;52.03;;;19.10;58.90;;;;;;4990770;28;85118;-73
2023/05/24 12:26:49;;;;;;;68.35;51.92;;;19.10;60.00;;;;;;4992046;28;90015;-73
2023/05/24 12:30:27;;;;;;;69.93;51.55;;;19.20;60.00;;;;;;5019861;27;83702;-52
2023/05/24 12:32:53;;;;;;;68.40;51.72;;;19.20;58.10;;;;;;4978381;28;86114;-57
2023/05/24 12:35:22;;;;;;;66.40;51.50;;;19.30;60.50;;;;;;4994255;28;86950;-49
2023/05/24 12:37:48;;;;;;;68.68;52.05;;;19.40;61.30;;;;;;5001016;28;85372;-59
2023/05/24 12:40:22;;;;;;;69.18;52.50;;;19.40;61.70;;;;;;4989384;28;85167;-50
2023/05/24 12:42:53;;;;;;;70.05;52.53;;;19.40;61.60;;;;;;4983417;28;85899;-52